createdAt,value
2018-03-11T20:14:16.047Z,94834.98
2018-03-11T20:16:42.816Z,94839.05
2018-03-11T20:19:09.738Z,94829.83
2018-03-11T20:21:36.377Z,94837.88
2018-03-11T20:24:02.982Z,94836.28
2018-03-11T20:26:29.647Z,94840.16
2018-03-11T20:28:56.284Z,94843.59
2018-03-11T20:31:22.992Z,94844.20
2018-03-11T20:33:49.579Z,94846.69
2018-03-11T20:36:16.212Z,94837.66
2018-03-11T20:38:42.808Z,94838.17
2018-03-11T20:41:09.405Z,94845.35
2018-03-11T20:43:36.102Z,94838.91
2018-03-11T20:46:02.708Z,94836.36
2018-03-11T20:48:29.316Z,94840.18
2018-03-11T20:50:55.910Z,94839.86
2018-03-11T20:53:22.519Z,94842.86
2018-03-11T20:55:49.124Z,94840.77
2018-03-11T20:58:15.740Z,94839.89
2018-03-11T21:00:42.393Z,94833.60
2018-03-11T21:03:09.032Z,94836.73
2018-03-11T21:05:35.648Z,94833.34
2018-03-11T21:08:02.288Z,94841.14
2018-03-11T21:10:28.882Z,94834.10
2018-03-11T21:12:55.506Z,94834.07
2018-03-11T21:15:23.019Z,94835.70
2018-03-11T21:17:49.623Z,94841.13
2018-03-11T21:20:16.263Z,94850.29
2018-03-11T21:22:42.852Z,94848.50
2018-03-11T21:25:09.451Z,94838.69
2018-03-11T21:27:36.072Z,94838.05
2018-03-11T21:30:06.627Z,94843.03
2018-03-11T21:32:33.221Z,94845.05
2018-03-11T21:34:59.842Z,94839.38
2018-03-11T21:37:26.451Z,94845.25
2018-03-11T21:39:53.084Z,94842.41
2018-03-11T21:42:19.726Z,94836.04
2018-03-11T21:44:46.325Z,94834.41
2018-03-11T21:47:12.942Z,94832.61
2018-03-11T21:49:39.536Z,94826.44
2018-03-11T21:52:06.149Z,94832.61
2018-03-11T21:54:32.833Z,94832.72
2018-03-11T21:56:59.420Z,94833.81
2018-03-11T21:59:26.056Z,94822.59
2018-03-11T22:01:52.703Z,94825.44
2018-03-11T22:04:19.292Z,94820.88
2018-03-11T22:06:45.889Z,94828.86
2018-03-11T22:09:12.483Z,94829.27
2018-03-11T22:11:39.069Z,94832.91
2018-03-11T22:14:05.649Z,94824.63
2018-03-11T22:16:32.236Z,94828.78
2018-03-11T22:18:58.852Z,94821.19
2018-03-11T22:21:25.446Z,94824.33
2018-03-11T22:23:52.056Z,94824.53
2018-03-11T22:26:18.677Z,94822.01
2018-03-11T22:28:45.285Z,94818.16
2018-03-11T22:31:11.900Z,94822.62
2018-03-11T22:33:38.498Z,94818.28
2018-03-11T22:36:05.095Z,94817.75
2018-03-11T22:38:31.691Z,94814.72
2018-03-11T22:40:58.286Z,94826.44
2018-03-11T22:43:24.878Z,94826.56
2018-03-11T22:45:51.473Z,94829.56
2018-03-11T22:48:18.107Z,94830.59
2018-03-11T22:50:44.715Z,94827.97
2018-03-11T22:53:11.318Z,94826.74
2018-03-11T22:55:37.908Z,94825.96
2018-03-11T22:58:04.501Z,94826.55
2018-03-11T23:00:31.148Z,94827.36
2018-03-11T23:02:57.728Z,94831.49
2018-03-11T23:05:24.328Z,94829.98
2018-03-11T23:07:50.907Z,94827.58
2018-03-11T23:10:17.492Z,94826.55
2018-03-11T23:12:44.102Z,94824.41
2018-03-11T23:15:10.701Z,94830.19
2018-03-11T23:17:37.321Z,94830.70
2018-03-11T23:20:03.915Z,94828.48
2018-03-11T23:22:30.515Z,94827.96
2018-03-11T23:24:57.096Z,94829.55
2018-03-11T23:27:23.684Z,94824.50
2018-03-11T23:29:50.280Z,94825.82
2018-03-11T23:32:16.872Z,94826.84
2018-03-11T23:34:43.480Z,94818.85
2018-03-11T23:37:10.069Z,94817.04
2018-03-11T23:39:36.669Z,94811.98
2018-03-11T23:42:03.322Z,94813.00
2018-03-11T23:44:29.919Z,94810.47
2018-03-11T23:46:56.529Z,94806.92
2018-03-11T23:49:23.128Z,94799.14
2018-03-11T23:51:49.726Z,94802.27
2018-03-11T23:54:16.316Z,94802.77
2018-03-11T23:56:42.913Z,94800.23
2018-03-11T23:59:09.599Z,94794.77
